createdAt,value
2022-08-04T00:00:10.067Z,99.90
2022-08-04T00:02:53.891Z,99.90
2022-08-04T00:05:46.616Z,99.90
2022-08-04T00:08:45.818Z,99.90
2022-08-04T00:11:21.348Z,99.90
2022-08-04T00:14:05.828Z,99.90
2022-08-04T00:16:38.895Z,99.90
2022-08-04T00:19:20.835Z,99.90
2022-08-04T00:21:57.634Z,99.90
2022-08-04T00:24:24.887Z,99.90
2022-08-04T00:26:55.419Z,99.90
2022-08-04T00:29:23.479Z,99.90
2022-08-04T00:31:56.960Z,99.90
2022-08-04T00:34:29.382Z,99.90
2022-08-04T00:36:58.067Z,99.90
2022-08-04T00:39:26.762Z,99.90
2022-08-04T00:41:59.647Z,99.90
2022-08-04T00:45:02.165Z,99.90
2022-08-04T00:48:10.219Z,99.90
2022-08-04T00:51:25.871Z,99.90
2022-08-04T00:54:20.399Z,99.90
2022-08-04T00:57:02.258Z,99.90
2022-08-04T01:00:14.525Z,99.90
2022-08-04T01:03:12.284Z,99.90
2022-08-04T01:06:19.583Z,99.90
2022-08-04T01:09:27.134Z,99.90
2022-08-04T01:12:34.149Z,99.90
2022-08-04T01:15:19.633Z,99.90
2022-08-04T01:18:01.815Z,99.90
2022-08-04T01:20:58.301Z,99.90
2022-08-04T01:23:44.525Z,99.90
2022-08-04T01:27:04.657Z,99.90
2022-08-04T01:29:44.048Z,99.90
2022-08-04T01:32:52.510Z,99.90
2022-08-04T01:35:46.996Z,99.90
2022-08-04T01:38:45.771Z,99.90
2022-08-04T01:41:19.591Z,99.90
2022-08-04T01:44:02.142Z,99.90
2022-08-04T01:46:35.354Z,99.90
2022-08-04T01:49:03.779Z,99.90
2022-08-04T01:51:36.173Z,99.90
2022-08-04T01:54:03.311Z,99.90
2022-08-04T01:56:31.680Z,99.90
2022-08-04T01:59:00.275Z,99.90
2022-08-04T02:01:27.464Z,99.90
2022-08-04T02:04:20.548Z,99.90
2022-08-04T02:06:50.464Z,99.90
2022-08-04T02:09:54.770Z,99.90
2022-08-04T02:13:03.668Z,99.90
2022-08-04T02:15:50.967Z,99.90
2022-08-04T02:19:14.716Z,99.90
2022-08-04T02:21:43.011Z,99.90
2022-08-04T02:24:15.553Z,99.90
2022-08-04T02:26:47.263Z,99.90
2022-08-04T02:29:32.105Z,99.90
2022-08-04T02:32:14.546Z,99.90
2022-08-04T02:34:57.411Z,99.90
2022-08-04T02:37:26.715Z,99.90
2022-08-04T02:39:54.689Z,99.90
2022-08-04T02:42:22.275Z,99.90
2022-08-04T02:44:52.720Z,99.90
2022-08-04T02:47:22.524Z,99.90
2022-08-04T02:49:52.798Z,99.90
2022-08-04T02:52:21.492Z,99.90
2022-08-04T02:54:55.333Z,99.90
2022-08-04T02:57:27.141Z,99.90
2022-08-04T03:00:15.103Z,99.90
2022-08-04T03:03:15.436Z,99.90
2022-08-04T03:06:11.027Z,99.90
2022-08-04T03:09:02.532Z,99.90
2022-08-04T03:12:16.495Z,99.90
2022-08-04T03:15:19.997Z,99.90
2022-08-04T03:18:05.053Z,99.90
2022-08-04T03:21:23.968Z,99.90
2022-08-04T03:24:24.568Z,99.90
2022-08-04T03:27:28.063Z,99.90
2022-08-04T03:30:05.179Z,99.90
2022-08-04T03:33:06.187Z,99.90
2022-08-04T03:36:19.845Z,99.90
2022-08-04T03:39:05.101Z,99.90
2022-08-04T03:42:21.191Z,99.90
2022-08-04T03:45:23.564Z,99.90
2022-08-04T03:48:09.376Z,99.90
2022-08-04T03:51:32.528Z,99.90
2022-08-04T03:54:40.002Z,99.90
2022-08-04T03:57:37.822Z,99.90
2022-08-04T04:00:20.556Z,99.90
2022-08-04T04:03:28.822Z,99.90
2022-08-04T04:06:06.179Z,99.90
2022-08-04T04:09:22.986Z,99.90
2022-08-04T04:12:50.909Z,99.90
2022-08-04T04:16:08.459Z,99.90
2022-08-04T04:19:28.209Z,99.90
2022-08-04T04:22:27.563Z,99.90
2022-08-04T04:25:25.559Z,99.90
2022-08-04T04:28:45.835Z,99.90
2022-08-04T04:31:11.747Z,99.90
2022-08-04T04:34:16.587Z,99.90
2022-08-04T04:37:26.596Z,99.90
2022-08-04T04:40:03.405Z,99.90
2022-08-04T04:42:36.114Z,99.90
2022-08-04T04:45:31.384Z,99.90
2022-08-04T04:48:15.394Z,99.90
2022-08-04T04:51:21.058Z,99.90
2022-08-04T04:54:36.355Z,99.90
2022-08-04T04:57:52.965Z,99.90
2022-08-04T05:00:13.711Z,99.90
2022-08-04T05:03:09.542Z,99.90
2022-08-04T05:06:15.283Z,99.90
2022-08-04T05:09:26.100Z,99.90
2022-08-04T05:14:31.347Z,99.90
2022-08-04T05:15:11.086Z,99.90
2022-08-04T05:17:42.269Z,99.90
2022-08-04T05:20:35.251Z,99.90
2022-08-04T05:23:24.835Z,99.90
2022-08-04T05:26:25.371Z,99.90
2022-08-04T05:28:56.688Z,99.90
2022-08-04T05:31:39.309Z,99.90
2022-08-04T05:34:16.266Z,99.90
2022-08-04T05:36:54.495Z,99.90
2022-08-04T05:39:39.304Z,99.90
2022-08-04T05:42:07.456Z,99.90
2022-08-04T05:44:36.025Z,99.90
2022-08-04T05:47:04.389Z,99.90
2022-08-04T05:49:33.104Z,99.90
2022-08-04T05:52:02.739Z,99.90
2022-08-04T05:54:32.507Z,99.90
2022-08-04T05:57:00.253Z,99.90
2022-08-04T05:59:29.542Z,99.90
2022-08-04T06:01:58.656Z,99.90
2022-08-04T06:04:32.816Z,99.90
2022-08-04T06:06:59.983Z,99.90
2022-08-04T06:09:27.400Z,99.90
2022-08-04T06:12:04.681Z,99.90
2022-08-04T06:14:39.783Z,99.90
2022-08-04T06:19:57.344Z,99.90
2022-08-04T06:20:19.547Z,99.90
2022-08-04T06:22:51.191Z,99.90
2022-08-04T06:25:28.221Z,99.90
2022-08-04T06:27:56.353Z,99.90
2022-08-04T06:30:27.252Z,99.90
2022-08-04T06:33:04.389Z,99.90
2022-08-04T06:35:34.752Z,99.90
2022-08-04T06:38:03.547Z,99.90
2022-08-04T06:40:34.249Z,99.90
2022-08-04T06:43:07.598Z,99.90
2022-08-04T06:45:38.308Z,99.90
2022-08-04T06:48:07.114Z,99.90
2022-08-04T06:51:32.678Z,99.90
2022-08-04T06:53:27.498Z,99.90
2022-08-04T06:55:56.691Z,99.90
2022-08-04T06:58:25.157Z,99.90
2022-08-04T07:00:53.300Z,99.90
2022-08-04T07:03:21.876Z,99.90
2022-08-04T07:05:50.828Z,99.90
2022-08-04T07:08:18.917Z,99.90
2022-08-04T07:10:46.521Z,99.90
2022-08-04T07:13:14.762Z,99.90
2022-08-04T07:15:47.198Z,99.90
2022-08-04T07:18:14.530Z,99.90
2022-08-04T07:20:46.902Z,99.90
2022-08-04T07:23:19.862Z,99.90
2022-08-04T07:26:10.998Z,99.90
2022-08-04T07:28:41.013Z,99.90
2022-08-04T07:31:31.890Z,99.90
2022-08-04T07:34:16.962Z,99.90
2022-08-04T07:36:55.550Z,99.90
2022-08-04T07:39:29.692Z,99.90
2022-08-04T07:42:02.415Z,99.90
2022-08-04T07:44:32.125Z,99.90
2022-08-04T07:47:06.064Z,99.90
2022-08-04T07:49:54.360Z,99.90
2022-08-04T07:52:21.983Z,99.90
2022-08-04T07:54:50.603Z,99.90
2022-08-04T07:57:40.091Z,99.90
2022-08-04T08:00:10.898Z,99.90
2022-08-04T08:02:39.332Z,99.90
2022-08-04T08:05:10.624Z,99.40
2022-08-04T08:07:38.328Z,98.80
2022-08-04T08:10:18.676Z,98.40
2022-08-04T08:12:51.140Z,99.00
2022-08-04T08:15:20.282Z,96.30
2022-08-04T08:17:58.476Z,97.40
2022-08-04T08:20:29.913Z,97.50
2022-08-04T08:22:58.300Z,95.50
2022-08-04T08:25:25.858Z,95.20
2022-08-04T08:27:56.079Z,95.40
2022-08-04T08:30:31.665Z,94.10
2022-08-04T08:33:05.665Z,93.50
2022-08-04T08:35:47.401Z,93.30
2022-08-04T08:38:33.632Z,92.30
2022-08-04T08:41:45.442Z,93.10
2022-08-04T08:44:37.516Z,93.60
2022-08-04T08:48:04.887Z,93.50
2022-08-04T08:51:09.706Z,92.40
2022-08-04T08:54:13.659Z,91.40
2022-08-04T08:57:16.866Z,91.30
2022-08-04T09:00:12.662Z,93.10
2022-08-04T09:03:05.360Z,92.10
2022-08-04T09:05:47.881Z,91.50
2022-08-04T09:08:42.185Z,90.20
2022-08-04T09:11:41.195Z,91.30
2022-08-04T09:14:35.545Z,91.90
2022-08-04T09:17:14.297Z,90.80
2022-08-04T09:19:53.036Z,90.20
2022-08-04T09:22:40.004Z,90.40
2022-08-04T09:25:20.617Z,88.30
2022-08-04T09:28:01.743Z,86.40
2022-08-04T09:31:06.046Z,89.00
2022-08-04T09:33:45.366Z,88.50
2022-08-04T09:36:39.843Z,86.60
2022-08-04T09:39:57.303Z,85.80
2022-08-04T09:42:47.067Z,86.20
2022-08-04T09:45:44.214Z,82.90
2022-08-04T09:48:37.643Z,85.70
2022-08-04T09:51:17.045Z,82.80
2022-08-04T09:53:58.533Z,81.60
2022-08-04T09:56:43.096Z,81.00
2022-08-04T09:59:27.183Z,79.90
2022-08-04T10:02:00.441Z,78.60
2022-08-04T10:04:31.986Z,78.60
2022-08-04T10:07:17.253Z,79.20
2022-08-04T10:10:36.059Z,79.10
2022-08-04T10:13:24.134Z,77.00
2022-08-04T10:16:31.760Z,75.80
2022-08-04T10:19:28.870Z,78.40
2022-08-04T10:21:59.461Z,76.70
2022-08-04T10:25:05.622Z,77.20
2022-08-04T10:28:01.112Z,76.40
2022-08-04T10:30:31.667Z,79.00
2022-08-04T10:33:16.214Z,77.30
2022-08-04T10:35:52.329Z,74.30
2022-08-04T10:39:06.385Z,74.40
2022-08-04T10:42:07.561Z,75.70
2022-08-04T10:44:57.660Z,72.40
2022-08-04T10:47:34.647Z,74.00
2022-08-04T10:50:04.038Z,69.60
2022-08-04T10:52:46.739Z,72.50
2022-08-04T10:55:19.512Z,73.80
2022-08-04T10:57:59.710Z,73.50
2022-08-04T11:00:31.034Z,75.10
2022-08-04T11:03:27.183Z,70.90
2022-08-04T11:05:56.251Z,71.30
2022-08-04T11:08:45.707Z,69.40
2022-08-04T11:12:00.527Z,71.20
2022-08-04T11:14:32.292Z,67.10
2022-08-04T11:17:08.360Z,67.10
2022-08-04T11:20:35.298Z,65.60
2022-08-04T11:23:11.601Z,65.20
2022-08-04T11:26:06.106Z,63.90
2022-08-04T11:29:04.562Z,63.70
2022-08-04T11:31:36.600Z,64.30
2022-08-04T11:34:25.075Z,59.60
2022-08-04T11:37:18.270Z,59.70
2022-08-04T11:40:01.315Z,62.70
2022-08-04T11:42:36.181Z,61.00
2022-08-04T11:45:12.369Z,61.30
2022-08-04T11:47:40.206Z,55.40
2022-08-04T11:50:35.287Z,55.00
2022-08-04T11:53:04.083Z,53.30
2022-08-04T11:55:32.833Z,52.90
2022-08-04T11:58:21.736Z,52.40
2022-08-04T12:01:02.735Z,53.90
2022-08-04T12:04:03.971Z,52.20
2022-08-04T12:06:56.740Z,50.30
2022-08-04T12:10:00.556Z,50.70
2022-08-04T12:12:44.083Z,49.80
2022-08-04T12:15:22.732Z,51.60
2022-08-04T12:18:35.932Z,49.30
2022-08-04T12:21:13.879Z,47.70
2022-08-04T12:23:44.228Z,48.10
2022-08-04T12:26:21.510Z,49.40
2022-08-04T12:29:09.571Z,49.40
2022-08-04T12:32:02.416Z,51.00
2022-08-04T12:34:48.458Z,50.60
2022-08-04T12:37:30.484Z,51.30
2022-08-04T12:40:22.594Z,49.70
2022-08-04T12:43:20.509Z,49.80
2022-08-04T12:45:53.239Z,46.90
2022-08-04T12:48:22.040Z,48.30
2022-08-04T12:50:59.792Z,48.90
2022-08-04T12:53:51.312Z,48.30
2022-08-04T12:56:27.618Z,48.40
2022-08-04T12:59:03.636Z,47.80
2022-08-04T13:02:06.952Z,46.50
2022-08-04T13:04:29.007Z,46.50
2022-08-04T13:07:12.496Z,43.20
2022-08-04T13:09:40.793Z,42.80
2022-08-04T13:12:31.996Z,41.10
2022-08-04T13:15:17.907Z,42.20
2022-08-04T13:17:50.689Z,44.20
2022-08-04T13:20:32.898Z,42.20
2022-08-04T13:23:04.914Z,43.30
2022-08-04T13:28:34.575Z,43.30
2022-08-04T13:30:24.950Z,43.30
2022-08-04T13:31:06.813Z,45.00
2022-08-04T13:33:40.278Z,46.80
2022-08-04T13:36:09.658Z,45.60
2022-08-04T13:38:52.519Z,45.40
2022-08-04T13:41:20.566Z,45.80
2022-08-04T13:44:19.268Z,45.00
2022-08-04T13:46:50.694Z,45.60
2022-08-04T13:49:38.049Z,46.40
2022-08-04T13:52:10.931Z,45.90
2022-08-04T13:54:48.067Z,46.90
2022-08-04T13:57:32.252Z,47.20
2022-08-04T14:00:09.331Z,45.30
2022-08-04T14:02:50.423Z,46.30
2022-08-04T14:05:29.361Z,44.30
2022-08-04T14:08:14.833Z,42.60
2022-08-04T14:10:42.250Z,44.10
2022-08-04T14:13:09.581Z,42.60
2022-08-04T14:16:01.657Z,44.20
2022-08-04T14:18:32.727Z,42.50
2022-08-04T14:21:11.415Z,43.30
2022-08-04T14:23:48.147Z,46.90
2022-08-04T14:26:20.050Z,42.90
2022-08-04T14:29:25.341Z,42.90
2022-08-04T14:31:35.137Z,43.10
2022-08-04T14:34:10.035Z,44.30
2022-08-04T14:37:13.115Z,43.40
2022-08-04T14:40:17.495Z,45.40
2022-08-04T14:42:55.504Z,44.00
2022-08-04T14:45:38.276Z,45.20
2022-08-04T14:48:11.713Z,43.20
2022-08-04T14:50:48.336Z,43.10
2022-08-04T14:53:21.864Z,43.80
2022-08-04T14:55:56.962Z,43.70
2022-08-04T14:58:36.946Z,43.30
2022-08-04T15:01:11.514Z,43.90
2022-08-04T15:03:50.402Z,44.60
2022-08-04T15:06:30.468Z,45.60
2022-08-04T15:09:03.033Z,46.60
2022-08-04T15:11:30.523Z,45.70
2022-08-04T15:13:59.369Z,46.00
2022-08-04T15:16:30.600Z,46.10
2022-08-04T15:19:00.920Z,46.40
2022-08-04T15:21:30.236Z,50.00
2022-08-04T15:23:59.445Z,49.10
2022-08-04T15:26:56.695Z,48.20
2022-08-04T15:30:00.941Z,48.00
2022-08-04T15:32:34.330Z,46.70
2022-08-04T15:35:10.952Z,47.30
2022-08-04T15:38:03.378Z,48.50
2022-08-04T15:40:54.355Z,48.00
2022-08-04T15:43:43.014Z,46.60
2022-08-04T15:46:43.869Z,47.90
2022-08-04T15:49:20.728Z,47.90
2022-08-04T15:52:02.311Z,45.10
2022-08-04T15:54:32.948Z,45.40
2022-08-04T15:57:02.248Z,46.30
2022-08-04T16:00:12.567Z,47.90
2022-08-04T16:02:43.917Z,47.70
2022-08-04T16:05:18.662Z,47.20
2022-08-04T16:08:08.771Z,46.40
2022-08-04T16:10:38.394Z,47.10
2022-08-04T16:13:14.739Z,47.80
2022-08-04T16:15:51.767Z,47.90
2022-08-04T16:18:31.440Z,47.40
2022-08-04T16:21:03.624Z,47.60
2022-08-04T16:24:02.199Z,47.10
2022-08-04T16:26:45.479Z,46.70
2022-08-04T16:29:40.501Z,47.20
2022-08-04T16:32:13.464Z,47.20
2022-08-04T16:34:56.422Z,48.80
2022-08-04T16:37:38.355Z,48.70
2022-08-04T16:40:35.952Z,49.00
2022-08-04T16:43:17.893Z,47.90
2022-08-04T16:46:03.788Z,49.10
2022-08-04T16:48:34.773Z,48.60
2022-08-04T16:51:07.213Z,48.90
2022-08-04T16:54:03.287Z,49.30
2022-08-04T16:56:34.728Z,51.10
2022-08-04T16:59:13.857Z,52.20
2022-08-04T17:01:53.713Z,53.90
2022-08-04T17:04:33.032Z,54.70
2022-08-04T17:07:03.304Z,55.30
2022-08-04T17:09:30.946Z,55.30
2022-08-04T17:12:00.048Z,55.40
2022-08-04T17:14:30.839Z,57.10
2022-08-04T17:17:01.823Z,56.90
2022-08-04T17:19:28.953Z,56.60
2022-08-04T17:22:06.012Z,56.50
2022-08-04T17:24:38.134Z,55.60
2022-08-04T17:28:10.355Z,56.50
2022-08-04T17:29:54.304Z,56.90
2022-08-04T17:32:23.297Z,57.00
2022-08-04T17:34:53.631Z,57.50
2022-08-04T17:37:52.475Z,57.40
2022-08-04T17:40:18.281Z,59.30
2022-08-04T17:43:01.232Z,59.50
2022-08-04T17:48:24.098Z,60.00
2022-08-04T17:50:52.522Z,61.90
2022-08-04T17:54:01.726Z,64.60
2022-08-04T17:56:51.745Z,63.50
2022-08-04T17:59:49.664Z,66.20
2022-08-04T18:02:34.532Z,64.20
2022-08-04T18:05:11.690Z,68.50
2022-08-04T18:08:38.950Z,70.10
2022-08-04T18:10:52.403Z,71.90
2022-08-04T18:13:27.088Z,72.50
2022-08-04T18:16:14.596Z,70.00
2022-08-04T18:19:14.564Z,73.10
2022-08-04T18:21:46.093Z,72.20
2022-08-04T18:24:34.101Z,72.00
2022-08-04T18:27:06.227Z,72.80
2022-08-04T18:29:38.971Z,73.40
2022-08-04T18:32:09.194Z,74.90
2022-08-04T18:34:40.809Z,74.70
2022-08-04T18:38:05.719Z,75.40
2022-08-04T18:40:28.055Z,76.00
2022-08-04T18:43:00.621Z,76.40
2022-08-04T18:45:34.076Z,75.60
2022-08-04T18:48:04.350Z,75.50
2022-08-04T18:51:09.462Z,75.60
2022-08-04T18:56:27.320Z,77.20
2022-08-04T18:58:56.638Z,78.10
2022-08-04T19:01:30.339Z,78.10
2022-08-04T19:07:24.444Z,78.10
2022-08-04T19:09:57.243Z,78.50
2022-08-04T19:12:26.780Z,79.10
2022-08-04T19:14:58.344Z,80.40
2022-08-04T19:17:52.511Z,79.10
2022-08-04T19:20:25.191Z,77.20
2022-08-04T19:24:10.955Z,79.70
2022-08-04T19:26:01.115Z,79.90
2022-08-04T19:28:31.840Z,80.80
2022-08-04T19:31:08.121Z,80.40
2022-08-04T19:33:59.577Z,80.90
2022-08-04T19:36:28.758Z,81.00
2022-08-04T19:38:58.340Z,81.30
2022-08-04T19:41:27.137Z,82.50
2022-08-04T19:43:55.529Z,82.90
2022-08-04T19:46:25.543Z,82.60
2022-08-04T19:48:59.598Z,83.00
2022-08-04T19:51:30.241Z,83.90
2022-08-04T19:54:03.837Z,84.20
2022-08-04T19:56:40.270Z,83.80
2022-08-04T19:59:10.325Z,83.80
2022-08-04T20:01:45.109Z,83.90
2022-08-04T20:04:14.380Z,82.70
2022-08-04T20:06:42.750Z,83.20
2022-08-04T20:09:24.667Z,83.00
2022-08-04T20:11:57.170Z,83.60
2022-08-04T20:14:31.271Z,83.70
2022-08-04T20:17:10.137Z,83.40
2022-08-04T20:19:42.017Z,84.40
2022-08-04T20:22:52.610Z,84.20
2022-08-04T20:25:35.545Z,84.80
2022-08-04T20:27:59.817Z,84.80
2022-08-04T20:30:29.999Z,85.10
2022-08-04T20:32:57.983Z,84.90
2022-08-04T20:35:26.877Z,85.80
2022-08-04T20:38:00.944Z,86.30
2022-08-04T20:40:30.546Z,86.90
2022-08-04T20:42:59.573Z,85.90
2022-08-04T20:45:55.759Z,85.70
2022-08-04T20:48:14.533Z,84.70
2022-08-04T20:50:44.927Z,85.70
2022-08-04T20:53:16.913Z,86.10
2022-08-04T20:55:55.179Z,86.40
2022-08-04T20:58:27.368Z,86.60
2022-08-04T21:00:55.849Z,86.00
2022-08-04T21:03:49.926Z,85.30
2022-08-04T21:06:11.411Z,85.60
2022-08-04T21:08:38.524Z,86.40
2022-08-04T21:11:06.901Z,85.50
2022-08-04T21:13:50.783Z,85.40
2022-08-04T21:16:55.187Z,85.60
2022-08-04T21:19:12.999Z,87.00
2022-08-04T21:21:41.554Z,87.50
2022-08-04T21:24:09.950Z,87.70
2022-08-04T21:26:42.710Z,88.50
2022-08-04T21:29:13.376Z,87.20
2022-08-04T21:31:51.129Z,86.20
2022-08-04T21:34:38.540Z,86.90
2022-08-04T21:37:09.086Z,86.80
2022-08-04T21:39:58.830Z,87.50
2022-08-04T21:42:28.862Z,88.40
2022-08-04T21:44:57.864Z,89.50
2022-08-04T21:47:25.269Z,89.30
2022-08-04T21:49:56.349Z,89.80
2022-08-04T21:52:25.029Z,90.30
2022-08-04T21:54:54.141Z,90.10
2022-08-04T21:57:24.863Z,90.00
2022-08-04T21:59:53.030Z,90.10
2022-08-04T22:02:20.222Z,90.30
2022-08-04T22:04:48.963Z,90.50
2022-08-04T22:07:17.066Z,90.80
2022-08-04T22:09:45.637Z,90.90
2022-08-04T22:12:29.921Z,90.70
2022-08-04T22:14:59.697Z,90.70
2022-08-04T22:17:35.227Z,90.70
2022-08-04T22:20:04.674Z,90.70
2022-08-04T22:22:35.731Z,91.10
2022-08-04T22:28:02.712Z,91.50
2022-08-04T22:30:37.460Z,92.20
2022-08-04T22:33:08.795Z,92.40
2022-08-04T22:35:48.822Z,92.30
2022-08-04T22:38:28.943Z,92.60
2022-08-04T22:41:13.762Z,92.40
2022-08-04T22:43:43.665Z,92.60
2022-08-04T22:46:23.849Z,92.90
2022-08-04T22:48:52.181Z,92.20
2022-08-04T22:51:21.120Z,92.20
2022-08-04T22:53:52.714Z,92.60
2022-08-04T22:56:37.170Z,92.10
2022-08-04T22:59:11.363Z,92.00
2022-08-04T23:01:59.803Z,91.50
2022-08-04T23:04:33.772Z,91.90
2022-08-04T23:07:05.265Z,91.70
2022-08-04T23:09:50.921Z,91.30
2022-08-04T23:12:27.356Z,90.80
2022-08-04T23:14:58.834Z,90.50
2022-08-04T23:17:28.389Z,91.10
2022-08-04T23:19:59.077Z,91.60
2022-08-04T23:22:41.165Z,92.20
2022-08-04T23:25:15.107Z,92.50
2022-08-04T23:27:50.783Z,93.10
2022-08-04T23:30:24.918Z,93.00
2022-08-04T23:32:57.790Z,93.10
2022-08-04T23:35:24.892Z,93.10
2022-08-04T23:37:56.624Z,93.60
2022-08-04T23:40:34.103Z,94.30
2022-08-04T23:43:16.132Z,94.70
2022-08-04T23:46:04.105Z,94.70
2022-08-04T23:48:34.184Z,94.70
2022-08-04T23:51:14.452Z,95.60
2022-08-04T23:54:02.427Z,95.50
2022-08-04T23:56:33.931Z,94.30
2022-08-04T23:59:03.683Z,94.80
